Time;durP1;ratioP1;P1;durP2;ratioP2;P2;SDS_P1;SDS_P2;PMS_P1;PMS_P2;Temp;Humidity;BMP_temperature;BMP_pressure;BME280_temperature;BME280_humidity;BME280_pressure;Samples;Min_cycle;Max_cycle;Signal;HPM_P1;HPM_P2
2022/11/09 00:00:03;;;;;;;;;;;;;;;16.47;71.42;100079.09;1297540;22;621;-74
2022/11/09 00:00:53;;;;;;;;;;;;;;;16.39;69.76;100073.66;1298207;22;593;-74
2022/11/09 00:01:43;;;;;;;;;;;;;;;16.43;72.02;100075.88;1297523;22;614;-74
2022/11/09 00:02:34;;;;;;;;;;;;;;;16.52;71.16;100082.13;1297212;22;661;-74
2022/11/09 00:03:24;;;;;;;;;;;;;;;16.42;69.64;100076.88;1297186;22;605;-74
2022/11/09 00:04:15;;;;;;;;;;;;;;;16.46;71.56;100077.41;1297494;22;656;-73
2022/11/09 00:05:05;;;;;;;;;;;;;;;16.55;72.00;100080.00;1297297;22;645;-73
2022/11/09 00:05:56;;;;;;;;;;;;;;;16.38;69.56;100085.41;1297411;22;661;-74
2022/11/09 00:06:46;;;;;;;;;;;;;;;16.46;70.97;100074.72;1297344;22;621;-74
2022/11/09 00:07:36;;;;;;;;;;;;;;;16.42;69.67;100076.88;1297400;22;632;-74
2022/11/09 00:08:27;;;;;;;;;;;;;;;16.44;71.65;100072.19;1297158;22;649;-74
2022/11/09 00:09:17;;;;;;;;;;;;;;;16.52;70.98;100074.06;1297207;22;653;-74
2022/11/09 00:10:08;;;;;;;;;;;;;;;16.54;71.33;100083.69;1296821;22;637;-73
2022/11/09 00:10:58;;;;;;;;;;;;;;;16.55;70.11;100080.00;1297329;22;644;-74
2022/11/09 00:11:48;;;;;;;;;;;;;;;16.47;70.21;100071.88;1297280;22;1952;-74
2022/11/09 00:12:39;;;;;;;;;;;;;;;16.48;70.79;100078.09;1297347;22;652;-74
2022/11/09 00:13:29;;;;;;;;;;;;;;;16.54;70.33;100077.47;1297369;22;636;-74
2022/11/09 00:14:20;;;;;;;;;;;;;;;16.50;70.33;100071.53;1296994;22;652;-74
2022/11/09 00:15:11;;;;;;;;;;;;;;;16.55;70.10;100073.78;1297257;22;648;-74
2022/11/09 00:16:01;;;;;;;;;;;;;;;16.53;70.71;100070.38;1296439;22;649;-74
2022/11/09 00:16:52;;;;;;;;;;;;;;;16.60;71.12;100071.47;1297484;22;671;-74
2022/11/09 00:17:42;;;;;;;;;;;;;;;16.64;70.55;100072.88;1297270;22;637;-74
2022/11/09 00:18:32;;;;;;;;;;;;;;;16.52;70.64;100085.69;1297326;22;652;-73
2022/11/09 00:19:23;;;;;;;;;;;;;;;16.57;70.95;100078.00;1297263;22;609;-73
2022/11/09 00:20:13;;;;;;;;;;;;;;;16.55;70.85;100081.84;1297245;22;637;-73
2022/11/09 00:21:04;;;;;;;;;;;;;;;16.52;70.98;100077.59;1297533;22;625;-73
2022/11/09 00:21:54;;;;;;;;;;;;;;;16.51;70.87;100077.75;1297362;22;791;-73
2022/11/09 00:22:44;;;;;;;;;;;;;;;16.58;70.23;100078.84;1297279;22;621;-72
2022/11/09 00:23:35;;;;;;;;;;;;;;;16.54;71.69;100078.31;1297342;22;629;-73
2022/11/09 00:24:25;;;;;;;;;;;;;;;16.60;70.98;100080.38;1296696;22;606;-72
2022/11/09 00:25:16;;;;;;;;;;;;;;;16.64;70.13;100083.63;1297282;22;625;-73
2022/11/09 00:26:06;;;;;;;;;;;;;;;16.58;71.54;100087.75;1297272;22;616;-73
2022/11/09 00:26:57;;;;;;;;;;;;;;;16.54;69.86;100082.84;1297422;22;668;-73
2022/11/09 00:27:47;;;;;;;;;;;;;;;16.56;71.71;100073.63;1296894;22;640;-73
2022/11/09 00:28:37;;;;;;;;;;;;;;;16.63;71.12;100077.41;1296096;22;506;-74
2022/11/09 00:29:28;;;;;;;;;;;;;;;16.45;70.83;100076.56;1296267;22;656;-74
2022/11/09 00:30:18;;;;;;;;;;;;;;;16.52;71.52;100076.75;1297298;22;604;-74
2022/11/09 00:31:09;;;;;;;;;;;;;;;16.50;70.50;100084.13;1297809;22;660;-74
2022/11/09 00:31:59;;;;;;;;;;;;;;;16.46;71.18;100080.94;1297679;22;613;-73
2022/11/09 00:32:50;;;;;;;;;;;;;;;16.48;71.26;100084.28;1297694;22;637;-73
2022/11/09 00:33:40;;;;;;;;;;;;;;;16.52;71.43;100082.13;1297788;22;745;-73
2022/11/09 00:34:30;;;;;;;;;;;;;;;16.55;70.91;100080.00;1297674;22;644;-73
2022/11/09 00:35:21;;;;;;;;;;;;;;;16.59;71.34;100077.84;1297481;22;624;-73
2022/11/09 00:36:11;;;;;;;;;;;;;;;16.62;71.28;100086.44;1297819;22;590;-72
2022/11/09 00:37:02;;;;;;;;;;;;;;;16.66;70.95;100073.53;1297688;22;661;-72
2022/11/09 00:37:52;;;;;;;;;;;;;;;16.66;71.64;100073.53;1297758;22;605;-72
2022/11/09 00:38:43;;;;;;;;;;;;;;;16.66;71.58;100084.28;1297969;22;622;-72
2022/11/09 00:39:33;;;;;;;;;;;;;;;16.58;69.51;100079.69;1298540;22;596;-73
2022/11/09 00:40:23;;;;;;;;;;;;;;;16.60;71.51;100077.69;1297874;22;613;-73
2022/11/09 00:41:14;;;;;;;;;;;;;;;16.55;69.90;100079.16;1297098;22;648;-73
2022/11/09 00:42:06;;;;;;;;;;;;;;;16.57;71.77;100078.00;1296646;22;668;-73
2022/11/09 00:42:56;;;;;;;;;;;;;;;16.46;70.12;100074.72;1296779;22;648;-73
2022/11/09 00:43:47;;;;;;;;;;;;;;;16.49;72.13;100069.84;1297821;22;629;-73
2022/11/09 00:44:37;;;;;;;;;;;;;;;16.49;69.92;100074.38;1297653;22;759;-73
2022/11/09 00:45:27;;;;;;;;;;;;;;;16.43;71.74;100075.03;1297602;22;610;-73
2022/11/09 00:46:18;;;;;;;;;;;;;;;16.46;71.70;100067.50;1297557;22;664;-73
2022/11/09 00:47:08;;;;;;;;;;;;;;;16.53;71.31;100081.16;1297778;22;621;-73
2022/11/09 00:47:59;;;;;;;;;;;;;;;16.50;70.78;100076.91;1297677;22;688;-73
2022/11/09 00:48:49;;;;;;;;;;;;;;;16.40;70.58;100069.94;1297719;22;864;-73
2022/11/09 00:49:39;;;;;;;;;;;;;;;16.35;69.96;100073.09;1297677;22;637;-72
2022/11/09 00:50:30;;;;;;;;;;;;;;;16.37;71.15;100076.47;1297583;22;746;-72
2022/11/09 00:51:20;;;;;;;;;;;;;;;16.37;70.38;100071.09;1297685;22;621;-72
2022/11/09 00:52:11;;;;;;;;;;;;;;;16.42;70.95;100078.72;1297821;22;641;-73
2022/11/09 00:53:01;;;;;;;;;;;;;;;16.32;69.84;100074.25;1297753;22;727;-73
2022/11/09 00:53:53;;;;;;;;;;;;;;;16.42;71.23;100078.72;1297822;22;668;-72
2022/11/09 00:54:43;;;;;;;;;;;;;;;16.43;70.95;100073.19;1297784;22;606;-73
2022/11/09 00:55:34;;;;;;;;;;;;;;;16.26;69.51;100072.22;1297612;22;646;-73
2022/11/09 00:56:24;;;;;;;;;;;;;;;16.32;71.91;100070.72;1297700;22;740;-73
2022/11/09 00:57:15;;;;;;;;;;;;;;;16.38;70.88;100077.31;1297794;22;610;-73
2022/11/09 00:58:06;;;;;;;;;;;;;;;16.42;71.01;100076.88;1297039;22;735;-72
2022/11/09 00:58:56;;;;;;;;;;;;;;;16.43;70.03;100080.41;1296490;22;614;-73
2022/11/09 00:59:47;;;;;;;;;;;;;;;16.35;69.36;100073.09;1297064;22;672;-73
2022/11/09 01:00:37;;;;;;;;;;;;;;;16.36;69.63;100074.78;1297392;22;672;-73
2022/11/09 01:01:28;;;;;;;;;;;;;;;16.43;71.31;100077.72;1297842;22;645;-73
2022/11/09 01:02:18;;;;;;;;;;;;;;;16.38;70.77;100074.63;1297225;22;727;-73
2022/11/09 01:03:08;;;;;;;;;;;;;;;16.28;69.85;100066.69;1297691;22;648;-73
2022/11/09 01:03:59;;;;;;;;;;;;;;;16.37;71.98;100070.25;1297189;22;649;-73
2022/11/09 01:04:49;;;;;;;;;;;;;;;16.29;70.59;100074.59;1297621;22;685;-72
2022/11/09 01:05:40;;;;;;;;;;;;;;;16.28;71.00;100070.22;1297563;22;632;-72
2022/11/09 01:06:30;;;;;;;;;;;;;;;16.28;71.53;100067.53;1297412;22;617;-72
2022/11/09 01:07:20;;;;;;;;;;;;;;;16.24;70.48;100068.81;1297508;22;684;-72
2022/11/09 01:08:11;;;;;;;;;;;;;;;16.27;70.89;100076.59;1296953;22;657;-73
2022/11/09 01:09:01;;;;;;;;;;;;;;;16.23;71.53;100069.81;1297375;22;649;-73
2022/11/09 01:09:52;;;;;;;;;;;;;;;16.24;70.10;100074.19;1297799;22;691;-72
2022/11/09 01:10:42;;;;;;;;;;;;;;;16.22;71.61;100065.44;1297474;22;653;-72
2022/11/09 01:11:33;;;;;;;;;;;;;;;16.27;69.96;100071.22;1297490;22;2031;-73
2022/11/09 01:12:23;;;;;;;;;;;;;;;16.22;71.58;100083.41;1297584;22;657;-73
2022/11/09 01:13:13;;;;;;;;;;;;;;;16.35;71.35;100072.25;1297567;22;648;-72
2022/11/09 01:14:04;;;;;;;;;;;;;;;16.15;70.05;100079.66;1297413;22;739;-73
2022/11/09 01:14:54;;;;;;;;;;;;;;;16.30;71.36;100076.25;1297608;22;637;-73
2022/11/09 01:15:45;;;;;;;;;;;;;;;16.18;69.16;100082.88;1297634;22;885;-73
2022/11/09 01:16:36;;;;;;;;;;;;;;;16.23;71.67;100079.72;1297447;22;633;-73
2022/11/09 01:17:26;;;;;;;;;;;;;;;16.28;71.74;100075.59;1297512;22;641;-73
2022/11/09 01:18:17;;;;;;;;;;;;;;;16.22;70.97;100081.56;1297464;22;665;-73
2022/11/09 01:19:07;;;;;;;;;;;;;;;16.31;71.03;100077.94;1297527;22;617;-73
2022/11/09 01:19:58;;;;;;;;;;;;;;;16.37;71.38;100075.63;1297498;22;696;-73
2022/11/09 01:20:48;;;;;;;;;;;;;;;16.18;68.98;100080.19;1297457;22;703;-73
2022/11/09 01:21:38;;;;;;;;;;;;;;;16.24;71.23;100076.88;1297559;22;676;-73
2022/11/09 01:22:29;;;;;;;;;;;;;;;16.22;71.07;100084.25;1296930;22;641;-73
2022/11/09 01:23:20;;;;;;;;;;;;;;;16.18;71.11;100085.56;1297528;22;597;-73
2022/11/09 01:24:10;;;;;;;;;;;;;;;16.19;71.21;100089.94;1297544;22;605;-73
2022/11/09 01:25:01;;;;;;;;;;;;;;;16.18;70.71;100084.72;1297632;22;672;-73
2022/11/09 01:25:51;;;;;;;;;;;;;;;16.15;70.02;100087.72;1297460;22;776;-73
2022/11/09 01:26:41;;;;;;;;;;;;;;;16.25;71.19;100081.28;1297503;22;605;-73
2022/11/09 01:27:32;;;;;;;;;;;;;;;16.30;71.38;100092.38;1297342;22;629;-73
2022/11/09 01:28:22;;;;;;;;;;;;;;;16.27;70.90;100086.50;1297319;22;676;-73
2022/11/09 01:29:13;;;;;;;;;;;;;;;16.28;70.61;100083.66;1298457;22;664;-73
2022/11/09 01:30:03;;;;;;;;;;;;;;;16.22;70.09;100105.78;1297620;22;661;-73
2022/11/09 01:30:54;;;;;;;;;;;;;;;16.22;70.00;100092.31;1297655;22;637;-73
2022/11/09 01:31:45;;;;;;;;;;;;;;;16.21;71.47;100087.94;1297429;22;1880;-73
2022/11/09 01:32:36;;;;;;;;;;;;;;;16.10;70.31;100081.97;1297588;22;689;-73
2022/11/09 01:33:29;;;;;;;;;;;;;;;16.16;70.92;100084.88;1297349;22;618;-73
2022/11/09 01:34:19;;;;;;;;;;;;;;;16.18;71.07;100093.63;1297370;22;644;-73
2022/11/09 01:35:10;;;;;;;;;;;;;;;16.01;71.09;100089.09;1297639;22;605;-72
2022/11/09 01:36:00;;;;;;;;;;;;;;;16.09;71.45;100089.19;1297409;22;665;-73
2022/11/09 01:36:50;;;;;;;;;;;;;;;16.11;71.05;100084.50;1297016;22;649;-73
2022/11/09 01:37:41;;;;;;;;;;;;;;;16.13;70.64;100089.69;1297662;22;625;-73
2022/11/09 01:38:31;;;;;;;;;;;;;;;16.08;69.44;100081.28;1297402;22;602;-73
2022/11/09 01:39:22;;;;;;;;;;;;;;;16.05;69.99;100087.78;1297728;22;788;-73
2022/11/09 01:40:12;;;;;;;;;;;;;;;16.05;70.43;100082.41;1297477;22;593;-73
2022/11/09 01:41:03;;;;;;;;;;;;;;;16.08;71.42;100076.75;1297592;22;660;-73
2022/11/09 01:41:53;;;;;;;;;;;;;;;16.13;71.03;100085.16;1297441;22;669;-73
2022/11/09 01:42:43;;;;;;;;;;;;;;;16.03;68.97;100084.41;1297552;22;606;-73
2022/11/09 01:43:34;;;;;;;;;;;;;;;16.06;70.78;100073.38;1297746;22;641;-72
2022/11/09 01:44:25;;;;;;;;;;;;;;;16.00;69.78;100075.81;1298395;22;542;-73
2022/11/09 01:45:15;;;;;;;;;;;;;;;15.92;70.35;100088.19;1297351;22;613;-73
2022/11/09 01:46:05;;;;;;;;;;;;;;;15.97;71.06;100075.13;1297615;22;626;-72
2022/11/09 01:46:56;;;;;;;;;;;;;;;15.92;69.94;100082.81;1297661;22;645;-73
2022/11/09 01:47:46;;;;;;;;;;;;;;;16.09;70.82;100088.34;1297331;22;629;-73
2022/11/09 01:48:37;;;;;;;;;;;;;;;16.13;70.97;100079.78;1296391;22;625;-73
2022/11/09 01:49:27;;;;;;;;;;;;;;;16.22;70.87;100083.41;1296507;22;597;-73
2022/11/09 01:50:18;;;;;;;;;;;;;;;16.09;68.91;100086.50;1297275;22;644;-73
2022/11/09 01:51:08;;;;;;;;;;;;;;;16.08;69.53;100092.88;1297423;22;613;-72
2022/11/09 01:51:58;;;;;;;;;;;;;;;16.05;69.81;100090.47;1297490;22;625;-73
2022/11/09 01:52:49;;;;;;;;;;;;;;;16.13;70.78;100087.84;1297655;22;617;-73
2022/11/09 01:53:39;;;;;;;;;;;;;;;15.96;68.94;100086.84;1297453;22;664;-72
2022/11/09 01:54:30;;;;;;;;;;;;;;;16.02;70.35;100085.41;1297605;22;633;-72
2022/11/09 01:55:20;;;;;;;;;;;;;;;15.96;69.19;100083.31;1297277;22;730;-72
2022/11/09 01:56:10;;;;;;;;;;;;;;;16.12;71.34;100086.16;1297614;22;672;-72
2022/11/09 01:57:01;;;;;;;;;;;;;;;16.19;70.69;100079.19;1297736;22;625;-72
2022/11/09 01:57:51;;;;;;;;;;;;;;;16.24;70.34;100087.66;1297495;22;706;-73
2022/11/09 01:58:42;;;;;;;;;;;;;;;16.23;70.63;100085.09;1298367;22;684;-73
2022/11/09 01:59:32;;;;;;;;;;;;;;;16.14;69.66;100081.47;1297293;22;645;-72
2022/11/09 02:00:23;;;;;;;;;;;;;;;16.15;70.06;100082.34;1297498;22;629;-74
2022/11/09 02:01:13;;;;;;;;;;;;;;;16.07;70.79;100082.28;1297559;22;625;-72
2022/11/09 02:02:03;;;;;;;;;;;;;;;16.13;71.11;100087.84;1297433;22;629;-71
2022/11/09 02:02:54;;;;;;;;;;;;;;;16.13;71.10;100090.53;1297832;22;637;-72
2022/11/09 02:03:44;;;;;;;;;;;;;;;16.22;71.50;100097.69;1297515;22;617;-72
2022/11/09 02:04:35;;;;;;;;;;;;;;;16.28;71.21;100094.41;1297573;22;640;-72
2022/11/09 02:05:25;;;;;;;;;;;;;;;16.23;70.81;100098.56;1297361;22;641;-72
2022/11/09 02:06:16;;;;;;;;;;;;;;;16.26;71.52;100091.03;1296805;22;659;-72
2022/11/09 02:07:06;;;;;;;;;;;;;;;16.27;71.66;100091.88;1297515;22;653;-72
2022/11/09 02:07:56;;;;;;;;;;;;;;;16.24;71.00;100082.25;1297538;22;628;-72
2022/11/09 02:08:47;;;;;;;;;;;;;;;16.30;71.86;100081.63;1297610;22;664;-73
2022/11/09 02:09:37;;;;;;;;;;;;;;;16.30;71.20;100075.44;1297480;22;668;-72
2022/11/09 02:10:28;;;;;;;;;;;;;;;16.32;71.33;100070.72;1297091;22;704;-72
2022/11/09 02:11:18;;;;;;;;;;;;;;;16.33;71.63;100075.94;1296094;22;636;-72
2022/11/09 02:12:08;;;;;;;;;;;;;;;16.28;71.30;100080.97;1296594;22;656;-72
2022/11/09 02:12:59;;;;;;;;;;;;;;;16.30;72.17;100070.88;1298291;22;979;-72
2022/11/09 02:13:49;;;;;;;;;;;;;;;16.27;72.21;100073.91;1297581;22;649;-73
2022/11/09 02:14:40;;;;;;;;;;;;;;;16.20;71.23;100074.66;1297513;22;617;-72
2022/11/09 02:15:30;;;;;;;;;;;;;;;16.26;72.20;100080.28;1297498;22;667;-72
2022/11/09 02:16:21;;;;;;;;;;;;;;;16.29;72.34;100079.97;1297580;22;672;-72
2022/11/09 02:17:11;;;;;;;;;;;;;;;16.29;71.98;100087.19;1297309;22;648;-72
2022/11/09 02:18:01;;;;;;;;;;;;;;;16.18;71.78;100076.66;1297712;22;632;-73
2022/11/09 02:18:52;;;;;;;;;;;;;;;16.21;72.01;100087.94;1297486;22;688;-73
2022/11/09 02:19:42;;;;;;;;;;;;;;;16.19;71.38;100079.19;1297488;22;708;-72
2022/11/09 02:20:33;;;;;;;;;;;;;;;16.14;72.39;100083.31;1296759;22;612;-73
2022/11/09 02:21:23;;;;;;;;;;;;;;;16.16;72.07;100084.88;1297217;22;633;-73
2022/11/09 02:22:14;;;;;;;;;;;;;;;16.22;71.98;100084.25;1297040;22;680;-73
2022/11/09 02:23:04;;;;;;;;;;;;;;;16.26;72.20;100082.13;1296278;22;613;-72
2022/11/09 02:23:55;;;;;;;;;;;;;;;16.28;71.84;100083.66;1296391;22;628;-72
2022/11/09 02:24:45;;;;;;;;;;;;;;;16.28;72.25;100091.72;1297403;22;691;-73
2022/11/09 02:25:35;;;;;;;;;;;;;;;16.26;72.13;100085.66;1297375;22;691;-73
2022/11/09 02:26:26;;;;;;;;;;;;;;;16.25;71.73;100094.72;1297594;22;625;-73
2022/11/09 02:27:16;;;;;;;;;;;;;;;16.23;70.89;100090.47;1297061;22;617;-73
2022/11/09 02:28:07;;;;;;;;;;;;;;;16.24;71.73;100087.66;1296474;22;660;-73
2022/11/09 02:28:57;;;;;;;;;;;;;;;16.23;71.95;100088.63;1296698;22;620;-72
2022/11/09 02:29:48;;;;;;;;;;;;;;;16.12;69.94;100088.03;1297479;22;703;-73
2022/11/09 02:30:38;;;;;;;;;;;;;;;16.18;72.41;100092.78;1297188;22;661;-73
2022/11/09 02:31:28;;;;;;;;;;;;;;;16.21;71.75;100077.19;1296448;22;1939;-73
2022/11/09 02:32:19;;;;;;;;;;;;;;;16.13;71.12;100079.78;1297058;22;711;-73
2022/11/09 02:33:09;;;;;;;;;;;;;;;16.09;71.56;100083.81;1297867;22;746;-73
2022/11/09 02:34:00;;;;;;;;;;;;;;;16.14;72.49;100077.94;1297655;22;703;-73
2022/11/09 02:34:50;;;;;;;;;;;;;;;16.20;72.50;100080.88;1296931;22;593;-73
2022/11/09 02:35:40;;;;;;;;;;;;;;;16.16;72.26;100078.66;1298593;22;630;-73
2022/11/09 02:36:31;;;;;;;;;;;;;;;16.23;72.44;100087.78;1297762;22;660;-73
2022/11/09 02:37:21;;;;;;;;;;;;;;;16.15;71.14;100085.88;1297452;22;644;-73
2022/11/09 02:38:12;;;;;;;;;;;;;;;16.20;72.05;100083.56;1297618;22;687;-73
2022/11/09 02:39:02;;;;;;;;;;;;;;;16.23;72.23;100088.63;1297596;22;672;-73
2022/11/09 02:39:53;;;;;;;;;;;;;;;16.18;71.72;100088.25;1297647;22;684;-73
2022/11/09 02:40:43;;;;;;;;;;;;;;;16.22;72.13;100078.03;1298596;22;644;-72
2022/11/09 02:41:33;;;;;;;;;;;;;;;16.19;71.71;100081.88;1297604;22;610;-73
2022/11/09 02:42:24;;;;;;;;;;;;;;;16.20;72.61;100083.56;1297667;22;633;-73
2022/11/09 02:43:14;;;;;;;;;;;;;;;16.25;72.29;100083.13;1297627;22;657;-72
2022/11/09 02:44:05;;;;;;;;;;;;;;;16.23;72.18;100083.25;1297756;22;625;-72
2022/11/09 02:44:55;;;;;;;;;;;;;;;16.21;72.11;100082.56;1297631;22;959;-73
2022/11/09 02:45:46;;;;;;;;;;;;;;;16.25;72.12;100089.34;1297710;22;650;-73
2022/11/09 02:46:36;;;;;;;;;;;;;;;16.26;72.05;100093.72;1297389;22;896;-73
2022/11/09 02:47:26;;;;;;;;;;;;;;;16.25;72.59;100093.88;1297644;22;633;-73
2022/11/09 02:48:17;;;;;;;;;;;;;;;16.30;72.05;100095.06;1297773;22;624;-73
2022/11/09 02:49:07;;;;;;;;;;;;;;;16.20;70.08;100097.00;1297559;22;601;-73
2022/11/09 02:49:58;;;;;;;;;;;;;;;16.14;70.45;100097.63;1297667;22;656;-73
2022/11/09 02:50:48;;;;;;;;;;;;;;;16.15;72.31;100098.47;1297655;22;618;-73
2022/11/09 02:51:38;;;;;;;;;;;;;;;16.14;72.45;100097.63;1297535;22;1944;-73
2022/11/09 02:52:29;;;;;;;;;;;;;;;16.20;72.27;100107.75;1297387;22;1111;-73
2022/11/09 02:53:19;;;;;;;;;;;;;;;16.19;72.20;100099.84;1297342;22;589;-72
2022/11/09 02:54:10;;;;;;;;;;;;;;;16.19;71.24;100108.75;1297304;22;628;-73
2022/11/09 02:55:00;;;;;;;;;;;;;;;16.11;70.55;100103.31;1296346;22;665;-72
2022/11/09 02:55:50;;;;;;;;;;;;;;;16.14;72.60;100103.00;1296819;22;626;-73
2022/11/09 02:56:41;;;;;;;;;;;;;;;16.20;72.55;100098.84;1297691;22;641;-73
2022/11/09 02:57:31;;;;;;;;;;;;;;;16.15;71.25;100088.56;1297644;22;618;-73
2022/11/09 02:58:22;;;;;;;;;;;;;;;16.17;72.83;100100.00;1297670;22;712;-73
2022/11/09 02:59:12;;;;;;;;;;;;;;;16.19;72.74;100097.16;1297535;22;660;-73
2022/11/09 03:00:03;;;;;;;;;;;;;;;16.20;72.51;100086.25;1297682;22;703;-73
2022/11/09 03:00:53;;;;;;;;;;;;;;;16.22;72.18;100088.78;1297555;22;763;-73
2022/11/09 03:01:43;;;;;;;;;;;;;;;16.25;72.85;100093.88;1297614;22;648;-73
2022/11/09 03:02:34;;;;;;;;;;;;;;;16.25;72.55;100092.03;1297532;22;641;-73
2022/11/09 03:03:24;;;;;;;;;;;;;;;16.26;72.28;100091.03;1297618;22;597;-73
2022/11/09 03:04:15;;;;;;;;;;;;;;;16.23;71.56;100091.34;1297052;22;711;-73
2022/11/09 03:05:05;;;;;;;;;;;;;;;16.27;72.35;100086.50;1297663;22;601;-73
2022/11/09 03:05:56;;;;;;;;;;;;;;;16.20;71.64;100086.25;1297659;22;613;-73
2022/11/09 03:06:46;;;;;;;;;;;;;;;16.18;72.85;100090.94;1297786;22;628;-73
2022/11/09 03:07:36;;;;;;;;;;;;;;;16.19;72.71;100078.34;1297598;22;617;-73
2022/11/09 03:08:27;;;;;;;;;;;;;;;16.05;70.32;100086.94;1297626;22;629;-73
2022/11/09 03:09:18;;;;;;;;;;;;;;;16.11;73.05;100081.81;1297468;22;625;-73
2022/11/09 03:10:08;;;;;;;;;;;;;;;15.98;71.02;100075.97;1298572;22;609;-73
2022/11/09 03:10:58;;;;;;;;;;;;;;;16.04;72.14;100078.03;1297133;22;676;-73
2022/11/09 03:11:49;;;;;;;;;;;;;;;16.10;72.38;100084.66;1296441;22;1938;-73
2022/11/09 03:12:39;;;;;;;;;;;;;;;16.16;72.84;100087.56;1296750;22;601;-73
2022/11/09 03:13:30;;;;;;;;;;;;;;;16.19;72.74;100087.25;1297622;22;633;-73
2022/11/09 03:14:20;;;;;;;;;;;;;;;16.10;70.97;100082.81;1297552;22;602;-72
2022/11/09 03:15:11;;;;;;;;;;;;;;;16.15;72.71;100077.81;1297692;22;664;-72
2022/11/09 03:16:01;;;;;;;;;;;;;;;16.11;71.13;100080.97;1297548;22;755;-73
2022/11/09 03:16:52;;;;;;;;;;;;;;;16.18;72.74;100082.88;1297568;22;598;-72
2022/11/09 03:17:42;;;;;;;;;;;;;;;16.12;72.49;100075.41;1297631;22;614;-72
2022/11/09 03:18:32;;;;;;;;;;;;;;;16.18;73.09;100077.50;1296878;22;606;-72
2022/11/09 03:19:23;;;;;;;;;;;;;;;16.19;72.59;100078.34;1297733;22;636;-72
2022/11/09 03:20:14;;;;;;;;;;;;;;;16.21;72.91;100085.25;1297442;22;633;-72
2022/11/09 03:21:04;;;;;;;;;;;;;;;16.22;72.91;100089.63;1297245;22;645;-71
2022/11/09 03:21:55;;;;;;;;;;;;;;;16.10;72.03;100082.81;1296305;22;645;-72
2022/11/09 03:22:45;;;;;;;;;;;;;;;16.06;72.33;100078.75;1289922;23;588;-72
2022/11/09 03:23:36;;;;;;;;;;;;;;;16.07;72.85;100076.91;1290865;23;645;-72
2022/11/09 03:24:26;;;;;;;;;;;;;;;16.08;71.35;100073.22;1298352;22;640;-73
2022/11/09 03:25:16;;;;;;;;;;;;;;;16.10;72.66;100076.59;1297478;22;665;-73
2022/11/09 03:26:07;;;;;;;;;;;;;;;16.13;72.54;100077.09;1297661;22;621;-73
2022/11/09 03:26:57;;;;;;;;;;;;;;;16.14;72.74;100070.72;1297479;22;598;-73
2022/11/09 03:27:48;;;;;;;;;;;;;;;16.19;72.87;100078.34;1297653;22;661;-73
2022/11/09 03:28:38;;;;;;;;;;;;;;;16.03;72.33;100076.34;1297506;22;652;-73
2022/11/09 03:29:28;;;;;;;;;;;;;;;16.11;72.28;100072.91;1297509;22;653;-73
2022/11/09 03:30:19;;;;;;;;;;;;;;;16.08;72.81;100076.75;1297592;22;652;-73
2022/11/09 03:31:09;;;;;;;;;;;;;;;16.10;73.02;100068.53;1297663;22;594;-73
2022/11/09 03:32:00;;;;;;;;;;;;;;;16.14;72.94;100077.94;1297548;22;648;-73
2022/11/09 03:32:51;;;;;;;;;;;;;;;16.15;71.83;100076.94;1296999;22;649;-73
2022/11/09 03:33:41;;;;;;;;;;;;;;;16.16;72.90;100079.50;1297451;22;684;-73
2022/11/09 03:34:31;;;;;;;;;;;;;;;16.18;73.22;100082.88;1297461;22;625;-73
2022/11/09 03:35:22;;;;;;;;;;;;;;;16.15;73.42;100088.56;1297599;22;625;-74
2022/11/09 03:36:14;;;;;;;;;;;;;;;16.00;72.88;100089.25;1298311;22;668;-73
2022/11/09 03:37:04;;;;;;;;;;;;;;;16.06;73.60;100085.97;1297408;22;649;-73
2022/11/09 03:37:55;;;;;;;;;;;;;;;16.10;73.05;100085.50;1290130;23;641;-73
2022/11/09 03:38:45;;;;;;;;;;;;;;;16.14;73.09;100089.53;1291799;23;672;-73
2022/11/09 03:39:36;;;;;;;;;;;;;;;16.16;73.17;100092.94;1296662;22;723;-74
2022/11/09 03:40:26;;;;;;;;;;;;;;;16.15;73.26;100091.25;1297605;22;566;-74
2022/11/09 03:41:17;;;;;;;;;;;;;;;16.15;73.53;100091.25;1297405;22;606;-74
2022/11/09 03:42:07;;;;;;;;;;;;;;;16.05;73.39;100092.31;1297364;22;602;-74
2022/11/09 03:42:58;;;;;;;;;;;;;;;16.09;73.65;100097.25;1297552;22;638;-72
2022/11/09 03:43:48;;;;;;;;;;;;;;;16.10;72.81;100101.63;1297263;22;723;-72
2022/11/09 03:44:38;;;;;;;;;;;;;;;15.95;72.41;100100.44;1297479;22;605;-72
2022/11/09 03:45:29;;;;;;;;;;;;;;;15.96;73.29;100110.19;1297677;22;665;-73
2022/11/09 03:46:19;;;;;;;;;;;;;;;15.97;73.43;100106.50;1297381;22;609;-73
2022/11/09 03:47:10;;;;;;;;;;;;;;;15.98;72.85;100109.06;1297559;22;730;-73
2022/11/09 03:48:00;;;;;;;;;;;;;;;15.94;71.93;100106.84;1297619;22;633;-73
2022/11/09 03:48:51;;;;;;;;;;;;;;;15.94;72.00;100109.53;1297585;22;594;-72
2022/11/09 03:49:41;;;;;;;;;;;;;;;15.86;72.17;100107.59;1297577;22;625;-73
2022/11/09 03:50:31;;;;;;;;;;;;;;;15.76;71.58;100114.03;1297412;22;641;-73
2022/11/09 03:51:22;;;;;;;;;;;;;;;15.78;74.11;100120.91;1297553;22;652;-73
2022/11/09 03:52:12;;;;;;;;;;;;;;;15.84;73.74;100114.09;1297422;22;664;-73
2022/11/09 03:53:03;;;;;;;;;;;;;;;15.92;73.72;100104.31;1285623;23;664;-73
2022/11/09 03:53:53;;;;;;;;;;;;;;;15.90;72.54;100116.19;1285760;23;668;-72
2022/11/09 03:54:43;;;;;;;;;;;;;;;15.90;73.38;100126.94;1285911;23;634;-74
2022/11/09 03:55:34;;;;;;;;;;;;;;;15.92;73.37;100116.91;1285712;23;633;-74
2022/11/09 03:56:24;;;;;;;;;;;;;;;15.89;73.73;100119.88;1285793;23;659;-73
2022/11/09 03:57:15;;;;;;;;;;;;;;;15.94;72.58;100118.41;1285740;23;647;-74
2022/11/09 03:58:05;;;;;;;;;;;;;;;15.88;72.93;100116.34;1285854;23;569;-73
2022/11/09 03:58:56;;;;;;;;;;;;;;;15.95;73.03;100125.47;1285701;23;680;-74
2022/11/09 03:59:46;;;;;;;;;;;;;;;16.03;73.82;100121.19;1285082;23;672;-74
2022/11/09 04:00:36;;;;;;;;;;;;;;;15.98;72.85;100130.56;1285754;23;628;-73
2022/11/09 04:01:27;;;;;;;;;;;;;;;15.85;73.28;100130.06;1285587;23;664;-73
2022/11/09 04:02:17;;;;;;;;;;;;;;;15.92;72.63;100133.88;1285639;23;648;-73
2022/11/09 04:03:08;;;;;;;;;;;;;;;15.76;73.29;100135.53;1285094;23;688;-74
2022/11/09 04:03:58;;;;;;;;;;;;;;;15.67;73.64;100133.72;1285677;23;758;-74
2022/11/09 04:04:49;;;;;;;;;;;;;;;15.67;73.78;100133.72;1284654;23;664;-73
2022/11/09 04:05:39;;;;;;;;;;;;;;;15.63;72.32;100134.00;1284862;23;685;-74
2022/11/09 04:06:29;;;;;;;;;;;;;;;15.78;73.01;100141.56;1284745;23;605;-74
2022/11/09 04:07:20;;;;;;;;;;;;;;;15.78;72.99;100138.88;1283891;23;700;-73
2022/11/09 04:08:10;;;;;;;;;;;;;;;15.73;72.56;100133.97;1283944;23;606;-73
2022/11/09 04:09:01;;;;;;;;;;;;;;;15.85;73.83;100140.81;1284897;23;668;-73
2022/11/09 04:09:51;;;;;;;;;;;;;;;15.92;72.94;100141.94;1285758;23;688;-73
2022/11/09 04:10:42;;;;;;;;;;;;;;;15.77;72.15;100140.72;1286610;23;660;-73
2022/11/09 04:11:32;;;;;;;;;;;;;;;15.89;73.52;100141.38;1284902;23;1896;-74
2022/11/09 04:12:22;;;;;;;;;;;;;;;15.87;73.41;100138.00;1284830;23;676;-74
2022/11/09 04:13:13;;;;;;;;;;;;;;;15.87;71.94;100148.75;1285035;23;637;-73
2022/11/09 04:14:03;;;;;;;;;;;;;;;15.90;73.74;100143.06;1284823;23;645;-73
2022/11/09 04:14:54;;;;;;;;;;;;;;;15.88;71.94;100142.38;1283310;23;739;-73
2022/11/09 04:15:44;;;;;;;;;;;;;;;15.83;73.32;100141.97;1284905;23;609;-73
2022/11/09 04:16:35;;;;;;;;;;;;;;;15.81;72.51;100138.59;1286009;23;838;-72
2022/11/09 04:17:25;;;;;;;;;;;;;;;15.90;73.45;100143.91;1285006;23;625;-72
2022/11/09 04:18:18;;;;;;;;;;;;;;;15.82;72.27;100142.97;1284874;23;656;-75
2022/11/09 04:19:09;;;;;;;;;;;;;;;15.91;73.63;100145.59;1286585;23;637;-74
2022/11/09 04:19:59;;;;;;;;;;;;;;;15.90;73.63;100133.16;1284991;23;610;-74
2022/11/09 04:20:49;;;;;;;;;;;;;;;15.89;71.54;100144.06;1284944;23;606;-74
2022/11/09 04:21:40;;;;;;;;;;;;;;;15.95;73.24;100140.75;1285026;23;629;-73
2022/11/09 04:22:30;;;;;;;;;;;;;;;15.91;73.53;100142.06;1286548;23;668;-72
2022/11/09 04:23:21;;;;;;;;;;;;;;;15.86;71.69;100152.41;1286518;23;710;-74
2022/11/09 04:24:11;;;;;;;;;;;;;;;15.71;73.41;100149.41;1284813;23;645;-73
2022/11/09 04:25:01;;;;;;;;;;;;;;;15.66;72.58;100150.81;1285038;23;669;-72
2022/11/09 04:25:52;;;;;;;;;;;;;;;15.78;73.73;100142.41;1284128;23;622;-73